Time;durP1;ratioP1;P1;durP2;ratioP2;P2;SDS_P1;SDS_P2;PMS_P1;PMS_P2;Temp;Humidity;BMP_temperature;BMP_pressure;BME280_temperature;BME280_humidity;BME280_pressure;Samples;Min_cycle;Max_cycle;Signal;HPM_P1;HPM_P2
2021/10/18 00:02:25;;;;;;;44.47;29.17;;;7.20;99.90;;;;;;5114471;27;20180;-70
2021/10/18 00:05:04;;;;;;;54.17;30.95;;;7.20;99.90;;;;;;5114582;28;20664;-70
2021/10/18 00:07:35;;;;;;;50.50;30.80;;;7.20;99.90;;;;;;5114821;28;20648;-70
2021/10/18 00:10:09;;;;;;;53.22;30.92;;;7.20;99.90;;;;;;5114248;28;20272;-71
2021/10/18 00:12:38;;;;;;;42.08;27.13;;;7.10;99.90;;;;;;5114522;27;20180;-71
2021/10/18 00:15:09;;;;;;;44.92;28.50;;;7.10;99.90;;;;;;5114622;28;20541;-70
2021/10/18 00:17:36;;;;;;;41.40;27.40;;;7.10;99.90;;;;;;5114728;28;20183;-71
2021/10/18 00:20:08;;;;;;;45.95;26.85;;;7.10;99.90;;;;;;5114377;27;20196;-71
2021/10/18 00:22:42;;;;;;;37.65;25.33;;;7.10;99.90;;;;;;5114466;27;20222;-71
2021/10/18 00:25:11;;;;;;;45.97;26.27;;;7.00;99.90;;;;;;5114345;28;20205;-70
2021/10/18 00:27:43;;;;;;;38.92;25.20;;;7.00;99.90;;;;;;5114086;28;20183;-71
2021/10/18 00:30:13;;;;;;;34.22;22.90;;;7.00;99.90;;;;;;5114149;28;20740;-71
2021/10/18 00:32:44;;;;;;;48.20;25.77;;;6.90;99.90;;;;;;5114117;28;20176;-71
2021/10/18 00:35:10;;;;;;;36.53;24.35;;;6.90;99.90;;;;;;5114079;27;20274;-70
2021/10/18 00:37:36;;;;;;;34.17;22.73;;;6.80;99.90;;;;;;5114863;27;20215;-71
2021/10/18 00:40:09;;;;;;;34.20;24.52;;;6.80;99.90;;;;;;5114457;28;20196;-71
2021/10/18 00:42:37;;;;;;;31.42;21.90;;;6.80;99.90;;;;;;5114075;28;20656;-70
2021/10/18 00:45:09;;;;;;;30.67;19.90;;;6.70;99.90;;;;;;5113977;28;20709;-71
2021/10/18 00:47:37;;;;;;;29.60;20.65;;;6.70;99.90;;;;;;5113801;28;20187;-72
2021/10/18 00:50:09;;;;;;;29.88;21.00;;;6.60;99.90;;;;;;5113894;28;20200;-72
2021/10/18 00:52:36;;;;;;;29.67;20.20;;;6.60;99.90;;;;;;5113816;28;20222;-71
2021/10/18 00:55:03;;;;;;;27.33;19.05;;;6.60;99.90;;;;;;5114003;28;20317;-71
2021/10/18 00:57:32;;;;;;;28.42;17.33;;;6.60;99.90;;;;;;5113755;28;20172;-72
2021/10/18 01:00:00;;;;;;;26.00;17.35;;;6.60;99.90;;;;;;5113574;28;20686;-71
2021/10/18 01:02:28;;;;;;;28.05;18.13;;;6.60;99.90;;;;;;5113411;28;20704;-71
2021/10/18 01:04:56;;;;;;;28.52;18.48;;;6.60;99.90;;;;;;5113624;28;20200;-71
2021/10/18 01:07:26;;;;;;;23.90;17.05;;;6.60;99.90;;;;;;5113864;28;20175;-71
2021/10/18 01:10:03;;;;;;;24.00;17.77;;;6.60;99.90;;;;;;5113570;28;20200;-71
2021/10/18 01:12:37;;;;;;;22.35;16.80;;;6.60;99.90;;;;;;5113407;27;20182;-71
2021/10/18 01:15:04;;;;;;;21.42;15.73;;;6.60;99.90;;;;;;5113009;28;20255;-70
2021/10/18 01:17:35;;;;;;;24.80;16.45;;;6.60;99.90;;;;;;5113628;28;20184;-71
2021/10/18 01:20:06;;;;;;;23.92;17.05;;;6.60;99.90;;;;;;5113743;28;20675;-71
2021/10/18 01:22:40;;;;;;;26.90;18.50;;;6.50;99.90;;;;;;5113640;27;20187;-71
2021/10/18 01:25:06;;;;;;;29.55;18.55;;;6.50;99.90;;;;;;5113068;28;20203;-70
2021/10/18 01:27:33;;;;;;;26.05;17.23;;;6.50;99.90;;;;;;5113337;28;20208;-70
2021/10/18 01:30:13;;;;;;;25.05;16.55;;;6.40;99.90;;;;;;5114617;28;20192;-71
2021/10/18 01:32:45;;;;;;;24.55;16.60;;;6.40;99.90;;;;;;5113979;28;20226;-70
2021/10/18 01:35:12;;;;;;;31.10;16.55;;;6.40;99.90;;;;;;5114366;28;20207;-70
2021/10/18 01:37:39;;;;;;;25.45;17.20;;;6.40;99.90;;;;;;5112981;28;20184;-71
2021/10/18 01:40:15;;;;;;;25.83;17.58;;;6.40;99.90;;;;;;5112925;28;20192;-70
2021/10/18 01:42:43;;;;;;;22.63;14.75;;;6.30;99.90;;;;;;5113540;28;20188;-71
2021/10/18 01:45:12;;;;;;;20.25;15.05;;;6.30;99.90;;;;;;5112914;28;20211;-71
2021/10/18 01:47:45;;;;;;;23.80;15.18;;;6.30;99.90;;;;;;5113114;28;20184;-71
2021/10/18 01:50:17;;;;;;;23.83;15.75;;;6.30;99.90;;;;;;5113257;28;20223;-71
2021/10/18 01:52:51;;;;;;;23.20;17.17;;;6.30;99.90;;;;;;5113699;28;20226;-70
2021/10/18 01:55:22;;;;;;;27.52;17.67;;;6.30;99.90;;;;;;5112759;28;20302;-71
2021/10/18 01:57:51;;;;;;;25.35;16.50;;;6.30;99.90;;;;;;5112814;28;20543;-71
2021/10/18 02:00:18;;;;;;;23.88;15.50;;;6.20;99.90;;;;;;5112850;28;20191;-71
2021/10/18 02:02:49;;;;;;;24.98;16.52;;;6.20;99.90;;;;;;5113269;28;20212;-71
2021/10/18 02:05:24;;;;;;;24.38;15.52;;;6.10;99.90;;;;;;5112835;28;20698;-70
2021/10/18 02:07:52;;;;;;;23.40;14.25;;;6.10;99.90;;;;;;5112604;28;20182;-70
2021/10/18 02:10:18;;;;;;;26.87;16.87;;;6.10;99.90;;;;;;5112617;28;20203;-71
2021/10/18 02:12:44;;;;;;;24.63;15.17;;;6.10;99.90;;;;;;5112514;28;20427;-71
2021/10/18 02:15:11;;;;;;;27.13;16.20;;;6.10;99.90;;;;;;5112684;28;20207;-70
2021/10/18 02:17:37;;;;;;;21.45;14.27;;;6.10;99.90;;;;;;5112698;28;20426;-70
2021/10/18 02:20:05;;;;;;;22.42;14.77;;;6.10;99.90;;;;;;5112615;28;20781;-70
2021/10/18 02:22:32;;;;;;;20.55;15.10;;;6.00;99.90;;;;;;5114086;28;20266;-70
2021/10/18 02:25:04;;;;;;;20.40;14.40;;;6.00;99.90;;;;;;5113127;28;20199;-71
2021/10/18 02:27:30;;;;;;;20.98;14.88;;;6.00;99.90;;;;;;5112818;28;20190;-70
2021/10/18 02:30:04;;;;;;;19.08;14.40;;;5.90;99.90;;;;;;5112614;28;20188;-71
2021/10/18 02:32:33;;;;;;;23.05;14.98;;;5.90;99.90;;;;;;5113134;28;20184;-71
2021/10/18 02:35:00;;;;;;;21.40;14.35;;;5.90;99.90;;;;;;5112520;28;20260;-70
2021/10/18 02:37:34;;;;;;;19.08;12.52;;;5.90;99.90;;;;;;5112565;28;20187;-70
2021/10/18 02:40:00;;;;;;;19.38;13.10;;;5.90;99.90;;;;;;5112546;28;20217;-71
2021/10/18 02:42:26;;;;;;;21.30;13.33;;;5.90;99.90;;;;;;5112514;28;20176;-70
2021/10/18 02:44:54;;;;;;;20.63;15.07;;;5.90;99.90;;;;;;5112449;28;20450;-71
2021/10/18 02:47:22;;;;;;;16.58;11.45;;;5.90;99.90;;;;;;5112595;28;20179;-71
2021/10/18 02:49:50;;;;;;;20.70;13.65;;;5.90;99.90;;;;;;5112285;28;20191;-70
2021/10/18 02:52:21;;;;;;;24.20;13.60;;;5.90;99.90;;;;;;5116391;28;20184;-71
2021/10/18 02:54:51;;;;;;;20.33;13.52;;;5.80;99.90;;;;;;5115975;28;20733;-70
2021/10/18 02:57:21;;;;;;;23.30;13.07;;;5.80;99.90;;;;;;5116383;28;20679;-72
2021/10/18 02:59:47;;;;;;;20.38;13.88;;;5.80;99.90;;;;;;5117148;28;20191;-70
2021/10/18 03:02:17;;;;;;;21.50;14.53;;;5.80;99.90;;;;;;5117051;28;20228;-70
2021/10/18 03:04:46;;;;;;;22.40;13.02;;;5.70;99.90;;;;;;5116206;27;20847;-70
2021/10/18 03:07:12;;;;;;;16.45;11.50;;;5.70;99.90;;;;;;5116234;28;20708;-70
2021/10/18 03:09:40;;;;;;;20.10;12.77;;;5.70;99.90;;;;;;5115549;28;20208;-70
2021/10/18 03:12:08;;;;;;;18.25;11.18;;;5.70;99.90;;;;;;5115399;28;20179;-70
2021/10/18 03:14:37;;;;;;;18.80;12.18;;;5.70;99.90;;;;;;5115439;28;20235;-71
2021/10/18 03:17:04;;;;;;;18.20;11.88;;;5.70;99.90;;;;;;5115531;28;20176;-70
2021/10/18 03:19:33;;;;;;;18.42;11.60;;;5.70;99.90;;;;;;5115491;28;20675;-70
2021/10/18 03:22:06;;;;;;;15.35;11.20;;;5.60;99.90;;;;;;5115520;28;20652;-71
2021/10/18 03:24:37;;;;;;;17.08;11.45;;;5.60;99.90;;;;;;5115403;28;20739;-70
2021/10/18 03:27:07;;;;;;;17.27;10.95;;;5.50;99.90;;;;;;5115282;28;20171;-71
2021/10/18 03:29:34;;;;;;;18.38;12.27;;;5.50;99.90;;;;;;5115650;28;20191;-71
2021/10/18 03:32:00;;;;;;;17.05;11.32;;;5.60;99.90;;;;;;5115395;28;20179;-70
2021/10/18 03:34:27;;;;;;;17.20;11.77;;;5.60;99.90;;;;;;5115203;28;20200;-71
2021/10/18 03:36:55;;;;;;;16.90;11.15;;;5.60;99.90;;;;;;5114854;28;20851;-71
2021/10/18 03:39:22;;;;;;;16.65;11.10;;;5.70;99.90;;;;;;5115311;28;20661;-69
2021/10/18 03:41:57;;;;;;;17.60;11.00;;;5.70;99.90;;;;;;5115850;27;20179;-71
2021/10/18 03:44:24;;;;;;;18.63;12.07;;;5.80;99.90;;;;;;5116429;28;20198;-70
2021/10/18 03:46:51;;;;;;;19.05;11.90;;;5.80;99.90;;;;;;5115065;28;20171;-71
2021/10/18 03:49:18;;;;;;;16.30;10.45;;;5.80;99.90;;;;;;5114804;28;20269;-71
2021/10/18 03:51:46;;;;;;;13.68;11.13;;;5.80;99.90;;;;;;5115039;28;20172;-71
2021/10/18 03:54:15;;;;;;;16.15;10.45;;;5.90;99.90;;;;;;5115125;28;20184;-71
2021/10/18 03:56:45;;;;;;;15.18;11.25;;;5.90;99.90;;;;;;5114778;27;20303;-70
2021/10/18 03:59:24;;;;;;;15.63;11.35;;;5.90;99.90;;;;;;5114999;27;20176;-71
2021/10/18 04:01:55;;;;;;;18.17;11.90;;;5.90;99.90;;;;;;5114162;28;20240;-70
2021/10/18 04:04:21;;;;;;;20.23;12.43;;;6.00;99.90;;;;;;5114747;28;20262;-70
2021/10/18 04:06:47;;;;;;;18.83;12.83;;;6.00;99.90;;;;;;5114596;28;20664;-70
2021/10/18 04:09:15;;;;;;;19.40;13.10;;;6.00;99.90;;;;;;5114740;28;20183;-70
2021/10/18 04:11:41;;;;;;;21.73;13.32;;;6.00;99.90;;;;;;5114619;28;20458;-71
2021/10/18 04:14:12;;;;;;;18.77;13.15;;;6.00;99.90;;;;;;5114483;28;20247;-71
2021/10/18 04:16:52;;;;;;;18.20;12.30;;;6.00;99.90;;;;;;5114355;28;20222;-71
2021/10/18 04:19:18;;;;;;;23.27;12.77;;;6.00;99.90;;;;;;5114558;28;20168;-70
2021/10/18 04:21:51;;;;;;;20.58;13.10;;;6.00;99.90;;;;;;5114495;28;20168;-71
2021/10/18 04:24:21;;;;;;;16.67;11.95;;;5.90;99.90;;;;;;5114413;28;20207;-69
2021/10/18 04:26:52;;;;;;;19.35;11.55;;;5.90;99.90;;;;;;5101822;28;20188;-70
2021/10/18 04:29:19;;;;;;;19.45;12.75;;;5.90;99.90;;;;;;5107075;28;20188;-70
2021/10/18 04:31:46;;;;;;;15.75;11.50;;;5.90;99.90;;;;;;5095450;28;20169;-70
2021/10/18 04:34:12;;;;;;;15.38;11.10;;;5.90;99.90;;;;;;5096101;28;20237;-70
2021/10/18 04:36:41;;;;;;;19.45;11.85;;;5.80;99.90;;;;;;5095614;28;20245;-70
2021/10/18 04:39:21;;;;;;;18.52;11.10;;;5.80;99.90;;;;;;5097109;28;20173;-70
2021/10/18 04:41:50;;;;;;;22.50;13.10;;;5.80;99.90;;;;;;5090940;28;20603;-71
2021/10/18 04:44:17;;;;;;;17.67;11.13;;;5.90;99.90;;;;;;5090369;28;20188;-71
2021/10/18 04:46:43;;;;;;;19.08;13.00;;;5.90;99.90;;;;;;5108131;28;20703;-70
2021/10/18 04:49:12;;;;;;;20.43;12.70;;;6.00;99.90;;;;;;5111816;28;20172;-72
2021/10/18 04:51:38;;;;;;;20.27;13.25;;;6.10;99.90;;;;;;5106059;28;20176;-70
2021/10/18 04:54:08;;;;;;;27.63;17.20;;;6.20;99.90;;;;;;5091293;28;20214;-71
2021/10/18 04:56:40;;;;;;;26.90;15.48;;;6.30;99.90;;;;;;5093002;28;20211;-70
2021/10/18 04:59:14;;;;;;;28.58;14.57;;;6.20;99.90;;;;;;5102235;28;20219;-71
2021/10/18 05:01:42;;;;;;;30.13;16.52;;;6.30;99.90;;;;;;5107760;28;20266;-70
2021/10/18 05:04:10;;;;;;;21.35;13.70;;;6.20;99.90;;;;;;5100892;28;20658;-71
2021/10/18 05:06:36;;;;;;;22.98;13.90;;;6.10;99.90;;;;;;5103892;28;20190;-70
2021/10/18 05:09:01;;;;;;;21.13;13.37;;;6.00;99.90;;;;;;5103187;28;20263;-71
2021/10/18 05:11:35;;;;;;;15.43;12.27;;;5.90;99.90;;;;;;5102093;28;20516;-70
2021/10/18 05:14:01;;;;;;;25.10;15.82;;;5.80;99.90;;;;;;5093348;28;20522;-70
2021/10/18 05:16:31;;;;;;;25.55;15.73;;;5.70;99.90;;;;;;5101086;28;20672;-70
2021/10/18 05:19:06;;;;;;;29.00;15.57;;;5.60;99.90;;;;;;5094322;28;20188;-70
2021/10/18 05:21:32;;;;;;;23.92;18.13;;;5.50;99.90;;;;;;5110709;28;20636;-70
2021/10/18 05:24:03;;;;;;;40.63;26.52;;;5.50;99.90;;;;;;5106770;28;20200;-70
2021/10/18 05:26:32;;;;;;;38.20;27.23;;;5.40;99.90;;;;;;5098933;28;20184;-70
2021/10/18 05:29:02;;;;;;;27.33;18.45;;;5.40;99.90;;;;;;5106749;28;20188;-70
2021/10/18 05:31:29;;;;;;;25.02;17.13;;;5.40;99.90;;;;;;5096646;28;20180;-70
2021/10/18 05:33:58;;;;;;;19.33;12.60;;;5.40;99.90;;;;;;5108147;28;20183;-70
2021/10/18 05:36:25;;;;;;;20.40;13.32;;;5.40;99.90;;;;;;5111443;28;20219;-70
2021/10/18 05:38:52;;;;;;;38.40;21.90;;;5.30;99.90;;;;;;5106094;28;20179;-70
2021/10/18 05:41:19;;;;;;;29.35;18.98;;;5.20;99.90;;;;;;5098782;28;20577;-70
2021/10/18 05:44:01;;;;;;;39.90;24.15;;;5.20;99.90;;;;;;5102291;28;20229;-71
2021/10/18 05:46:30;;;;;;;60.72;37.50;;;5.20;99.90;;;;;;5101181;28;20229;-70
2021/10/18 05:48:58;;;;;;;46.90;28.15;;;5.20;99.90;;;;;;5125757;28;20610;-70
2021/10/18 05:51:29;;;;;;;34.60;19.33;;;5.20;99.90;;;;;;5107447;28;20224;-70
2021/10/18 05:53:56;;;;;;;28.08;18.42;;;5.20;99.90;;;;;;5088322;28;20963;-70
2021/10/18 05:56:22;;;;;;;30.10;17.67;;;5.20;99.90;;;;;;5099171;28;20215;-70
2021/10/18 05:58:54;;;;;;;27.88;16.98;;;5.30;99.90;;;;;;5095904;28;20184;-71
2021/10/18 06:01:20;;;;;;;31.40;18.50;;;5.40;99.90;;;;;;5096082;28;20546;-71
2021/10/18 06:03:52;;;;;;;33.25;20.45;;;5.50;99.90;;;;;;5099666;28;20195;-70
2021/10/18 06:06:19;;;;;;;30.15;19.63;;;5.50;99.90;;;;;;5099249;28;20231;-70
2021/10/18 06:08:49;;;;;;;32.90;21.33;;;5.60;99.90;;;;;;5097792;28;20652;-71
2021/10/18 06:11:16;;;;;;;39.17;27.73;;;5.70;99.90;;;;;;5102070;28;20360;-71
2021/10/18 06:13:45;;;;;;;33.58;24.77;;;5.80;99.90;;;;;;5100579;28;20224;-71
2021/10/18 06:16:11;;;;;;;44.40;25.30;;;5.90;99.90;;;;;;5098751;28;20242;-71
2021/10/18 06:18:38;;;;;;;33.53;24.17;;;6.00;99.90;;;;;;5101059;28;20182;-71
2021/10/18 06:21:10;;;;;;;32.20;22.90;;;6.20;99.90;;;;;;5096872;28;20205;-70
2021/10/18 06:23:48;;;;;;;34.25;22.10;;;6.30;99.90;;;;;;5106996;28;20191;-70
2021/10/18 06:26:17;;;;;;;28.70;17.70;;;6.50;99.90;;;;;;5105014;28;20683;-70
2021/10/18 06:28:47;;;;;;;36.08;18.10;;;6.60;99.90;;;;;;5106877;28;20191;-70
2021/10/18 06:31:15;;;;;;;29.77;17.50;;;6.80;99.90;;;;;;5103740;28;20200;-71
2021/10/18 06:33:42;;;;;;;29.67;18.00;;;6.90;99.90;;;;;;5104876;27;20680;-70
2021/10/18 06:36:11;;;;;;;34.77;20.10;;;7.00;99.90;;;;;;5104414;28;20207;-70
2021/10/18 06:38:38;;;;;;;28.17;18.65;;;7.20;99.90;;;;;;5104499;28;20552;-71
2021/10/18 06:41:05;;;;;;;29.10;17.40;;;7.30;99.90;;;;;;5100542;28;20196;-71
2021/10/18 06:43:31;;;;;;;28.33;17.88;;;7.40;99.90;;;;;;5098854;28;20186;-70
2021/10/18 06:45:59;;;;;;;23.15;16.20;;;7.60;99.90;;;;;;5099579;28;20235;-71
2021/10/18 06:48:25;;;;;;;26.25;17.60;;;7.60;99.90;;;;;;5110993;28;20191;-71
2021/10/18 06:50:55;;;;;;;22.95;15.60;;;7.80;99.90;;;;;;5110412;28;20200;-72
2021/10/18 06:53:31;;;;;;;24.67;15.65;;;7.90;99.90;;;;;;5105237;28;20640;-72
2021/10/18 06:56:05;;;;;;;30.15;15.77;;;7.90;99.90;;;;;;5102228;28;20211;-72
2021/10/18 06:58:31;;;;;;;25.58;17.25;;;8.00;99.90;;;;;;5106239;28;20222;-72
2021/10/18 07:01:02;;;;;;;42.50;18.90;;;8.10;99.90;;;;;;5104792;28;20215;-72
2021/10/18 07:03:30;;;;;;;47.22;27.05;;;8.20;99.90;;;;;;5097290;28;20501;-71
2021/10/18 07:06:03;;;;;;;24.00;15.63;;;8.30;99.90;;;;;;5102602;28;20296;-71
2021/10/18 07:08:34;;;;;;;29.85;15.05;;;8.30;99.90;;;;;;5097108;28;20191;-71
2021/10/18 07:11:07;;;;;;;29.00;16.33;;;8.40;99.90;;;;;;5101367;28;20304;-71
2021/10/18 07:16:32;;;;;;;29.23;17.77;;;8.60;99.90;;;;;;6278837;22;20210;-71
2021/10/18 07:18:57;;;;;;;26.97;16.30;;;8.70;99.90;;;;;;5083578;28;20810;-71
2021/10/18 07:21:25;;;;;;;24.10;15.67;;;8.80;99.90;;;;;;5076646;28;20816;-71
2021/10/18 07:23:52;;;;;;;23.25;14.30;;;8.80;99.90;;;;;;5067612;28;20256;-72
2021/10/18 07:26:22;;;;;;;28.83;18.10;;;9.00;99.90;;;;;;5069891;28;20224;-71
2021/10/18 07:28:51;;;;;;;22.95;16.45;;;9.10;99.90;;;;;;5066089;28;20232;-71
2021/10/18 07:31:19;;;;;;;26.60;17.60;;;9.20;99.90;;;;;;5074896;28;20753;-72
2021/10/18 07:34:05;;;;;;;22.23;15.15;;;9.30;99.90;;;;;;5060033;28;20429;-70
2021/10/18 07:36:33;;;;;;;25.60;18.05;;;9.40;99.90;;;;;;5060911;28;20629;-71
2021/10/18 07:39:05;;;;;;;25.13;19.27;;;9.50;99.90;;;;;;5060801;28;20173;-71
2021/10/18 07:41:34;;;;;;;27.73;16.80;;;9.70;99.90;;;;;;5064513;28;20220;-70
2021/10/18 07:44:00;;;;;;;26.17;19.10;;;9.90;99.90;;;;;;5056223;28;20185;-72
2021/10/18 07:46:25;;;;;;;22.95;14.40;;;10.10;99.90;;;;;;5066556;28;20182;-72
2021/10/18 07:49:00;;;;;;;20.13;14.83;;;10.30;99.90;;;;;;5065659;28;20220;-71
2021/10/18 07:51:34;;;;;;;21.98;15.32;;;10.40;99.90;;;;;;5077437;28;20185;-71
2021/10/18 07:54:02;;;;;;;19.33;14.38;;;10.50;99.90;;;;;;5064717;28;20260;-72
2021/10/18 07:56:29;;;;;;;16.90;12.70;;;10.60;99.90;;;;;;5060392;28;20629;-72
2021/10/18 07:58:57;;;;;;;21.20;13.80;;;10.70;99.90;;;;;;5053560;28;20185;-72
2021/10/18 08:01:27;;;;;;;19.85;13.52;;;10.80;99.90;;;;;;5060658;28;20232;-72
2021/10/18 08:03:53;;;;;;;15.77;12.25;;;10.80;99.90;;;;;;5064987;28;20185;-72
2021/10/18 08:06:28;;;;;;;19.30;11.20;;;10.90;99.90;;;;;;5065427;28;20200;-71
2021/10/18 08:09:09;;;;;;;17.60;13.05;;;11.00;99.90;;;;;;5065562;28;20216;-72
2021/10/18 08:11:35;;;;;;;22.08;12.70;;;11.10;99.90;;;;;;5064690;28;20250;-72
2021/10/18 08:14:25;;;;;;;16.90;12.65;;;11.10;99.90;;;;;;5070713;28;20185;-71
2021/10/18 08:17:04;;;;;;;20.40;14.07;;;11.20;99.90;;;;;;5064264;28;20286;-72
2021/10/18 08:19:36;;;;;;;15.93;11.63;;;11.30;99.90;;;;;;5067357;28;20570;-73
2021/10/18 08:22:03;;;;;;;17.98;11.05;;;11.40;99.90;;;;;;5066128;28;20244;-72
2021/10/18 08:24:29;;;;;;;18.48;11.95;;;11.50;99.90;;;;;;5064199;28;20204;-72
2021/10/18 08:27:05;;;;;;;18.93;12.63;;;11.60;99.90;;;;;;5066022;28;20197;-72
2021/10/18 08:29:31;;;;;;;17.73;11.00;;;11.80;99.90;;;;;;5043445;28;20265;-73
2021/10/18 08:32:02;;;;;;;18.03;10.80;;;11.90;99.90;;;;;;5065451;28;20931;-72
2021/10/18 08:34:50;;;;;;;15.70;10.30;;;11.90;99.90;;;;;;5063884;28;20458;-71
2021/10/18 08:37:16;;;;;;;22.93;11.20;;;12.00;99.90;;;;;;5064740;28;20468;-72
2021/10/18 08:40:03;;;;;;;28.10;15.63;;;12.10;99.90;;;;;;5081979;28;20525;-73
2021/10/18 08:46:20;;;;;;;20.77;13.95;;;12.20;99.90;;;;;;5071442;28;20953;-72
2021/10/18 08:49:03;;;;;;;23.50;14.77;;;12.30;99.90;;;;;;5059508;28;20247;-72
2021/10/18 08:51:51;;;;;;;23.37;14.20;;;12.40;99.90;;;;;;5056007;28;20451;-72
2021/10/18 08:54:18;;;;;;;19.20;13.23;;;12.50;99.90;;;;;;5064975;28;20427;-72
2021/10/18 08:56:44;;;;;;;22.73;13.60;;;12.50;99.90;;;;;;5071671;28;20477;-73
2021/10/18 08:59:27;;;;;;;15.37;10.57;;;12.60;99.90;;;;;;5067232;28;20439;-72
2021/10/18 09:01:59;;;;;;;12.23;9.30;;;12.60;99.90;;;;;;5070167;28;20438;-72
2021/10/18 09:04:38;;;;;;;13.95;8.55;;;12.70;99.90;;;;;;5068028;28;20440;-71
2021/10/18 09:07:17;;;;;;;13.48;8.80;;;12.80;99.90;;;;;;5076318;28;20193;-71
2021/10/18 09:09:53;;;;;;;13.75;9.60;;;12.80;99.90;;;;;;5058166;28;20197;-72
2021/10/18 09:12:48;;;;;;;11.60;9.30;;;12.90;99.90;;;;;;5061439;28;20238;-72
2021/10/18 09:15:26;;;;;;;15.40;10.50;;;13.00;99.90;;;;;;5060463;28;20482;-72
2021/10/18 09:18:29;;;;;;;15.17;10.93;;;13.00;99.90;;;;;;5062094;28;20486;-72
2021/10/18 09:21:08;;;;;;;16.13;10.57;;;13.10;99.90;;;;;;5070088;28;20449;-72
2021/10/18 09:23:40;;;;;;;24.00;13.40;;;13.20;99.90;;;;;;5068031;28;20957;-71
2021/10/18 09:26:26;;;;;;;18.10;12.20;;;13.20;99.90;;;;;;5064829;28;20997;-72
2021/10/18 09:32:27;;;;;;;20.50;12.20;;;13.40;99.90;;;;;;5066393;28;20448;-71
2021/10/18 09:35:07;;;;;;;19.33;13.40;;;13.40;99.90;;;;;;5064271;28;20473;-71
2021/10/18 09:37:46;;;;;;;15.57;10.67;;;13.50;99.90;;;;;;5061480;28;20449;-70
2021/10/18 09:40:34;;;;;;;12.00;9.97;;;13.50;99.90;;;;;;5060137;28;20449;-71
2021/10/18 09:43:15;;;;;;;12.63;10.03;;;13.80;99.90;;;;;;5055265;28;20495;-71
2021/10/18 09:45:59;;;;;;;17.07;10.17;;;14.00;99.90;;;;;;5064918;28;20449;-71
2021/10/18 10:56:37;;;;;;;9.20;7.33;;;15.50;99.90;;;;;;5067761;28;21086;-73
2021/10/18 10:59:25;;;;;;;9.73;8.73;;;15.50;99.90;;;;;;5067092;28;20532;-73
2021/10/18 11:01:53;;;;;;;13.53;8.77;;;15.60;99.90;;;;;;5064027;28;20472;-73
2021/10/18 11:04:34;;;;;;;7.60;5.93;;;15.70;99.90;;;;;;5065537;28;20488;-74
2021/10/18 11:07:25;;;;;;;8.30;5.17;;;15.80;99.90;;;;;;5077441;28;20503;-73
2021/10/18 11:10:00;;;;;;;6.80;4.93;;;15.80;99.90;;;;;;5062658;28;20479;-74
2021/10/18 11:12:38;;;;;;;8.83;5.00;;;16.00;99.90;;;;;;5065935;28;20793;-73
2021/10/18 11:15:21;;;;;;;7.67;4.50;;;16.00;99.90;;;;;;5061980;28;20542;-73
2021/10/18 11:18:09;;;;;;;10.37;7.50;;;16.10;99.90;;;;;;5067335;28;20473;-74
2021/10/18 11:20:42;;;;;;;6.87;5.27;;;16.10;99.90;;;;;;5064927;28;20793;-74
2021/10/18 11:23:13;;;;;;;6.60;5.63;;;16.20;99.90;;;;;;5066091;28;21008;-71
2021/10/18 11:25:43;;;;;;;9.40;4.50;;;16.10;99.90;;;;;;5069172;28;21017;-71
2021/10/18 11:28:10;;;;;;;6.90;5.40;;;16.10;99.90;;;;;;5069272;28;20441;-73
2021/10/18 11:30:39;;;;;;;7.97;5.20;;;16.10;99.90;;;;;;5071403;28;20464;-74
2021/10/18 11:33:13;;;;;;;5.97;4.90;;;16.10;99.90;;;;;;5068230;28;20447;-73
2021/10/18 11:35:39;;;;;;;5.97;4.87;;;16.10;99.90;;;;;;5065861;28;20517;-73
2021/10/18 11:38:08;;;;;;;6.93;4.30;;;16.10;99.90;;;;;;5071712;28;20434;-71
2021/10/18 11:40:42;;;;;;;6.40;5.30;;;16.10;99.90;;;;;;5072633;28;20449;-70
2021/10/18 11:43:13;;;;;;;8.90;5.30;;;16.10;99.90;;;;;;5069934;28;20482;-71
2021/10/18 11:45:45;;;;;;;6.80;4.73;;;16.20;99.90;;;;;;5070014;28;20441;-71
2021/10/18 11:48:26;;;;;;;5.83;4.77;;;16.20;99.90;;;;;;5066311;28;20481;-71
2021/10/18 11:51:10;;;;;;;6.37;5.40;;;16.20;99.90;;;;;;5066283;28;21031;-71
2021/10/18 11:53:44;;;;;;;7.83;5.13;;;16.20;99.90;;;;;;5060951;28;20426;-71
2021/10/18 11:56:18;;;;;;;9.47;5.30;;;16.20;99.90;;;;;;5066846;28;20465;-71
2021/10/18 11:58:53;;;;;;;6.73;4.60;;;16.20;99.90;;;;;;5071734;28;20433;-71
2021/10/18 12:01:27;;;;;;;6.73;4.60;;;16.20;99.90;;;;;;5064958;28;21017;-71
2021/10/18 12:03:59;;;;;;;7.10;4.80;;;16.20;99.90;;;;;;5067403;28;20485;-71
2021/10/18 12:06:29;;;;;;;7.60;5.13;;;16.20;99.90;;;;;;5062654;28;20449;-71
2021/10/18 12:08:57;;;;;;;5.43;4.50;;;16.20;99.90;;;;;;5067336;28;20426;-71
2021/10/18 12:11:29;;;;;;;7.33;4.60;;;16.20;99.90;;;;;;5066578;28;20448;-71
2021/10/18 12:13:56;;;;;;;6.00;5.00;;;16.20;99.90;;;;;;5061815;28;20490;-71
2021/10/18 12:16:24;;;;;;;6.93;5.27;;;16.30;99.90;;;;;;5061339;28;20493;-71
2021/10/18 12:18:57;;;;;;;6.93;5.93;;;16.30;99.90;;;;;;5063632;28;20567;-71
2021/10/18 12:21:32;;;;;;;6.53;5.63;;;16.30;99.90;;;;;;5128674;22;20483;-70
2021/10/18 12:24:01;;;;;;;8.70;5.83;;;16.30;99.90;;;;;;5084522;28;20403;-71
2021/10/18 12:26:33;;;;;;;7.00;5.13;;;16.30;99.90;;;;;;5059871;28;20431;-72
2021/10/18 12:29:05;;;;;;;7.20;5.10;;;16.40;99.90;;;;;;5065953;28;20430;-71
2021/10/18 12:31:42;;;;;;;5.97;4.83;;;16.40;99.90;;;;;;5066830;28;20429;-72
2021/10/18 12:34:11;;;;;;;6.73;5.63;;;16.40;99.90;;;;;;5067862;28;20433;-72
2021/10/18 12:36:53;;;;;;;7.33;5.50;;;16.40;99.90;;;;;;5082095;28;20895;-71
2021/10/18 12:39:36;;;;;;;9.20;4.87;;;16.40;99.90;;;;;;5081691;28;20454;-71
2021/10/18 12:42:16;;;;;;;9.33;4.90;;;16.40;99.90;;;;;;5066999;28;20438;-72
2021/10/18 12:44:44;;;;;;;7.37;5.23;;;16.40;99.90;;;;;;5066673;28;20524;-71
2021/10/18 12:47:29;;;;;;;9.47;5.70;;;16.40;99.90;;;;;;5063765;28;20459;-71
2021/10/18 12:50:11;;;;;;;9.60;6.77;;;16.40;99.90;;;;;;5061845;28;20882;-72
2021/10/18 12:52:50;;;;;;;8.80;6.77;;;16.40;99.90;;;;;;5057632;28;20741;-72
2021/10/18 12:55:19;;;;;;;8.17;6.50;;;16.40;99.90;;;;;;5072827;28;20469;-73
2021/10/18 12:58:00;;;;;;;8.60;7.07;;;16.40;99.90;;;;;;5052983;28;20426;-70
2021/10/18 13:00:37;;;;;;;9.20;6.53;;;16.30;99.90;;;;;;5059511;28;20953;-72
2021/10/18 13:03:08;;;;;;;9.90;7.20;;;16.40;99.90;;;;;;5067840;28;20469;-71
2021/10/18 13:05:45;;;;;;;8.43;7.63;;;16.30;99.90;;;;;;5080402;28;20470;-72
2021/10/18 13:08:20;;;;;;;10.00;7.30;;;16.30;99.90;;;;;;5066321;28;20909;-72
2021/10/18 13:10:54;;;;;;;8.23;7.20;;;16.30;99.90;;;;;;5064424;28;20460;-72
2021/10/18 13:13:22;;;;;;;8.37;6.30;;;16.30;99.90;;;;;;5057820;28;20902;-72
2021/10/18 13:15:51;;;;;;;8.33;6.00;;;16.30;99.90;;;;;;5057695;28;20491;-72
2021/10/18 13:18:20;;;;;;;7.47;5.80;;;16.30;99.90;;;;;;5059447;28;20434;-72
2021/10/18 13:20:47;;;;;;;6.70;5.67;;;16.40;99.90;;;;;;5065185;28;20581;-72
2021/10/18 13:23:16;;;;;;;6.67;5.30;;;16.40;99.90;;;;;;5078932;28;20806;-71
2021/10/18 13:25:55;;;;;;;6.60;6.00;;;16.40;99.90;;;;;;5056569;28;20516;-71
2021/10/18 13:28:27;;;;;;;6.90;5.90;;;16.40;99.90;;;;;;5066423;28;20444;-70
2021/10/18 13:30:53;;;;;;;6.80;5.40;;;16.50;99.90;;;;;;5065828;28;20457;-71
2021/10/18 13:33:26;;;;;;;6.73;6.03;;;16.50;99.90;;;;;;5064593;28;20965;-72
2021/10/18 13:35:54;;;;;;;9.20;5.27;;;16.50;99.90;;;;;;5075759;28;20228;-73
2021/10/18 13:38:24;;;;;;;16.23;9.30;;;16.60;99.90;;;;;;5076653;28;20540;-72
2021/10/18 13:40:54;;;;;;;12.10;7.90;;;16.60;99.90;;;;;;5058987;28;20524;-72
2021/10/18 13:43:25;;;;;;;12.07;8.00;;;16.60;99.90;;;;;;5065334;28;20433;-72
2021/10/18 13:45:51;;;;;;;8.80;6.53;;;16.60;99.90;;;;;;5069968;28;20457;-72
2021/10/18 13:48:25;;;;;;;7.10;5.83;;;16.60;99.90;;;;;;5069994;28;20424;-72
2021/10/18 13:50:52;;;;;;;8.70;6.70;;;16.60;99.90;;;;;;5068769;28;20475;-72
2021/10/18 13:53:20;;;;;;;8.20;6.70;;;16.60;99.90;;;;;;5069271;28;20426;-70
2021/10/18 13:55:47;;;;;;;9.47;6.67;;;16.60;99.90;;;;;;5066872;28;20493;-72
2021/10/18 13:58:14;;;;;;;14.63;9.03;;;16.60;99.90;;;;;;5067021;28;20422;-71
2021/10/18 14:00:40;;;;;;;8.70;6.17;;;16.50;99.90;;;;;;5066393;28;20511;-72
2021/10/18 14:03:14;;;;;;;7.60;6.70;;;16.50;99.90;;;;;;5067708;28;20476;-73
2021/10/18 14:05:45;;;;;;;10.40;6.40;;;16.50;99.90;;;;;;5055732;28;21015;-70
2021/10/18 14:08:11;;;;;;;7.47;5.80;;;16.50;99.90;;;;;;5058832;28;20422;-71
2021/10/18 14:10:38;;;;;;;8.40;6.60;;;16.50;99.90;;;;;;5053966;28;20432;-72
2021/10/18 14:13:04;;;;;;;7.00;6.17;;;16.40;99.90;;;;;;5058094;28;20809;-72
2021/10/18 14:15:37;;;;;;;9.40;6.10;;;16.40;99.90;;;;;;5066395;28;20473;-71
2021/10/18 14:18:03;;;;;;;9.90;6.60;;;16.40;99.90;;;;;;5068463;28;20467;-73